Time;durP1;ratioP1;P1;durP2;ratioP2;P2;SDS_P1;SDS_P2;PMS_P1;PMS_P2;Temp;Humidity;BMP_temperature;BMP_pressure;BME280_temperature;BME280_humidity;BME280_pressure;Samples;Min_cycle;Max_cycle;Signal;HPM_P1;HPM_P2
2022/01/04 00:00:28;;;;;;;38.80;22.67;;;22.20;94.10;;;;;;4176066;28;20565;-64
2022/01/04 00:02:33;;;;;;;36.63;22.55;;;22.20;94.20;;;;;;4167460;28;20072;-64
2022/01/04 00:04:38;;;;;;;33.13;21.20;;;22.20;94.10;;;;;;4170993;28;20650;-64
2022/01/04 00:06:45;;;;;;;36.38;20.70;;;22.20;94.10;;;;;;4173823;28;20504;-64
2022/01/04 00:08:49;;;;;;;33.90;20.00;;;22.20;94.10;;;;;;4171153;28;20043;-63
2022/01/04 00:11:05;;;;;;;31.42;18.67;;;22.30;94.20;;;;;;4169405;28;20164;-63
2022/01/04 00:15:26;;;;;;;27.27;17.83;;;22.30;94.30;;;;;;4172160;28;20456;-63
2022/01/04 00:17:30;;;;;;;30.88;18.98;;;22.20;94.50;;;;;;4172645;28;20071;-63
2022/01/04 00:19:34;;;;;;;35.08;20.25;;;22.20;94.60;;;;;;4169524;28;20089;-63
2022/01/04 00:21:39;;;;;;;32.47;22.05;;;22.20;94.70;;;;;;4171098;28;20538;-63
2022/01/04 00:23:43;;;;;;;27.80;20.80;;;22.10;94.90;;;;;;4170959;28;20052;-62
2022/01/04 00:25:48;;;;;;;36.70;20.90;;;22.10;94.90;;;;;;4170626;28;20541;-63
2022/01/04 00:27:52;;;;;;;31.35;21.17;;;22.20;94.90;;;;;;4170525;28;20045;-63
2022/01/04 00:29:56;;;;;;;36.45;21.70;;;22.20;94.80;;;;;;4170295;28;20518;-62
2022/01/04 00:32:01;;;;;;;33.85;23.13;;;22.30;94.70;;;;;;4171079;28;20049;-63
2022/01/04 00:34:05;;;;;;;37.20;23.13;;;22.10;94.80;;;;;;4170283;28;20491;-63
2022/01/04 00:36:11;;;;;;;41.38;25.33;;;22.10;94.80;;;;;;4171770;28;20049;-62
2022/01/04 00:38:16;;;;;;;37.65;25.13;;;22.10;94.90;;;;;;4172869;28;20128;-63
2022/01/04 00:40:21;;;;;;;45.17;27.45;;;22.10;95.00;;;;;;4174472;28;20052;-62
2022/01/04 00:42:25;;;;;;;49.47;25.55;;;22.20;95.00;;;;;;4170813;28;20418;-64
2022/01/04 00:44:29;;;;;;;44.67;25.40;;;22.20;94.90;;;;;;4169520;28;20033;-64
2022/01/04 00:46:40;;;;;;;43.63;26.02;;;22.30;94.80;;;;;;4171969;28;20048;-63
2022/01/04 00:49:10;;;;;;;;;;;22.20;95.10;;;;;;4170829;28;20454;-63
2022/01/04 00:51:15;;;;;;;41.92;26.73;;;22.20;95.00;;;;;;4170547;28;20267;-63
2022/01/04 00:53:19;;;;;;;45.97;27.05;;;22.20;95.00;;;;;;4170170;28;20087;-63
2022/01/04 00:55:24;;;;;;;43.65;26.20;;;22.30;95.10;;;;;;4170573;28;20041;-63
2022/01/04 00:57:29;;;;;;;43.97;26.95;;;22.30;94.90;;;;;;4173250;28;20044;-65
2022/01/04 00:59:34;;;;;;;42.63;27.80;;;22.30;94.90;;;;;;4168652;28;20136;-64
2022/01/04 01:01:39;;;;;;;48.55;29.63;;;22.30;94.70;;;;;;4164962;28;20108;-64
2022/01/04 01:03:43;;;;;;;54.05;33.90;;;22.20;94.80;;;;;;4167119;28;20033;-64
2022/01/04 01:05:48;;;;;;;55.85;36.63;;;22.10;95.10;;;;;;4172113;28;20467;-63
2022/01/04 01:07:54;;;;;;;57.90;36.38;;;22.10;95.10;;;;;;4171046;28;20100;-64
2022/01/04 01:12:03;;;;;;;58.00;34.00;;;22.20;95.10;;;;;;4171812;28;20059;-63
2022/01/04 01:14:07;;;;;;;52.67;31.25;;;22.10;95.20;;;;;;4173052;28;20063;-65
2022/01/04 01:16:13;;;;;;;46.33;31.05;;;22.30;94.90;;;;;;4174000;28;20052;-64
2022/01/04 01:18:17;;;;;;;46.55;27.98;;;22.20;95.00;;;;;;4171168;28;20431;-64
2022/01/04 01:20:22;;;;;;;41.25;27.17;;;22.30;95.00;;;;;;4167683;28;20052;-64
2022/01/04 01:22:27;;;;;;;43.22;29.38;;;22.20;94.70;;;;;;4173014;28;20565;-64
2022/01/04 01:24:31;;;;;;;52.35;27.27;;;22.20;94.70;;;;;;4170519;28;20091;-64
2022/01/04 01:26:37;;;;;;;41.45;27.80;;;22.30;94.70;;;;;;4177387;28;20060;-63
2022/01/04 01:28:42;;;;;;;46.15;27.45;;;22.40;94.50;;;;;;4177907;28;20079;-65
2022/01/04 01:30:46;;;;;;;45.03;28.23;;;22.40;94.50;;;;;;4174731;28;20098;-63
2022/01/04 01:32:51;;;;;;;38.15;25.08;;;22.50;94.30;;;;;;4174777;28;20458;-63
2022/01/04 01:34:56;;;;;;;37.42;25.23;;;22.60;93.80;;;;;;4170629;28;20052;-64
2022/01/04 01:37:00;;;;;;;34.80;23.23;;;22.70;93.70;;;;;;4167232;28;20044;-64
2022/01/04 01:39:05;;;;;;;35.53;20.90;;;22.80;93.30;;;;;;4172354;28;20072;-65
2022/01/04 01:41:09;;;;;;;27.40;20.40;;;22.80;93.10;;;;;;4171354;28;20083;-64
2022/01/04 01:43:14;;;;;;;28.48;20.27;;;22.90;93.10;;;;;;4177744;28;20079;-64
2022/01/04 01:45:21;;;;;;;30.15;20.65;;;23.00;92.70;;;;;;4178037;28;20116;-65
2022/01/04 01:47:26;;;;;;;29.10;18.50;;;23.10;92.70;;;;;;4175742;28;20053;-65
2022/01/04 01:49:30;;;;;;;26.33;17.75;;;23.10;92.70;;;;;;4178204;28;20051;-64
2022/01/04 01:51:35;;;;;;;25.35;17.73;;;23.00;92.60;;;;;;4175160;28;20049;-65
2022/01/04 01:53:40;;;;;;;23.27;17.88;;;22.90;92.80;;;;;;4174695;28;20045;-63
2022/01/04 01:55:44;;;;;;;25.30;17.85;;;22.90;93.00;;;;;;4178112;28;20126;-63
2022/01/04 01:57:49;;;;;;;24.55;17.00;;;23.00;92.90;;;;;;4175941;28;20033;-65
2022/01/04 01:59:55;;;;;;;24.95;14.80;;;23.00;92.40;;;;;;4177777;28;20059;-64
2022/01/04 02:02:01;;;;;;;21.08;14.98;;;23.00;92.00;;;;;;4176465;28;20094;-65
2022/01/04 02:04:06;;;;;;;18.40;15.50;;;23.10;91.90;;;;;;4178584;28;20048;-65
2022/01/04 02:06:10;;;;;;;24.38;16.00;;;23.10;92.00;;;;;;4175909;28;20041;-65
2022/01/04 02:08:15;;;;;;;23.80;16.52;;;23.10;92.10;;;;;;4176820;28;20041;-65
2022/01/04 02:10:19;;;;;;;27.20;17.83;;;23.00;92.40;;;;;;4176207;28;20083;-65
2022/01/04 02:12:24;;;;;;;25.17;17.42;;;23.10;92.60;;;;;;4165759;28;20132;-65
2022/01/04 02:14:28;;;;;;;23.75;17.75;;;22.80;92.80;;;;;;4162064;28;20045;-66
2022/01/04 02:16:32;;;;;;;23.75;16.48;;;22.90;92.90;;;;;;4168858;28;20048;-65
2022/01/04 02:18:37;;;;;;;22.45;15.48;;;23.10;92.80;;;;;;4169602;28;20088;-65
2022/01/04 02:20:41;;;;;;;24.33;15.77;;;23.20;92.40;;;;;;4169988;28;20060;-65
2022/01/04 02:22:47;;;;;;;23.35;14.65;;;23.20;92.30;;;;;;4170441;28;20060;-64
2022/01/04 02:24:52;;;;;;;19.25;12.57;;;23.30;92.40;;;;;;4169384;28;20119;-64
2022/01/04 02:26:56;;;;;;;18.27;12.75;;;23.30;91.20;;;;;;4181991;28;20102;-63
2022/01/04 02:29:02;;;;;;;17.77;12.35;;;23.40;91.40;;;;;;4181956;28;20126;-66
2022/01/04 02:31:06;;;;;;;17.75;12.60;;;23.40;91.30;;;;;;4179865;28;20499;-64
2022/01/04 02:33:11;;;;;;;15.85;12.13;;;23.50;91.30;;;;;;4178149;28;20045;-64
2022/01/04 02:35:16;;;;;;;19.48;13.15;;;23.50;91.00;;;;;;4181503;28;20076;-64
2022/01/04 02:37:23;;;;;;;21.40;13.15;;;23.60;91.00;;;;;;4180615;28;20036;-64
2022/01/04 02:39:27;;;;;;;15.10;11.70;;;23.60;91.00;;;;;;4180767;28;20056;-64
2022/01/04 02:41:32;;;;;;;15.88;12.35;;;23.80;90.70;;;;;;4179190;28;20063;-64
2022/01/04 02:43:37;;;;;;;14.88;11.20;;;23.90;90.20;;;;;;4172213;28;20570;-64
2022/01/04 02:45:42;;;;;;;18.52;11.93;;;23.90;90.50;;;;;;4164166;28;20046;-64
2022/01/04 02:47:48;;;;;;;16.73;12.30;;;23.90;90.50;;;;;;4168212;28;20052;-64
2022/01/04 02:49:53;;;;;;;15.35;11.90;;;23.90;90.30;;;;;;4177291;28;20615;-66
2022/01/04 02:51:57;;;;;;;15.02;11.15;;;23.80;90.20;;;;;;4170753;28;20057;-65
2022/01/04 02:54:02;;;;;;;15.77;11.10;;;23.70;90.70;;;;;;4172023;28;20091;-65
2022/01/04 02:56:06;;;;;;;17.33;11.70;;;23.80;90.20;;;;;;4177559;28;20128;-65
2022/01/04 02:58:11;;;;;;;15.98;11.93;;;23.70;90.20;;;;;;4181534;28;20048;-65
2022/01/04 03:00:16;;;;;;;15.50;11.73;;;23.70;90.10;;;;;;4181403;28;20791;-66
2022/01/04 03:02:20;;;;;;;17.52;11.57;;;23.80;90.20;;;;;;4176870;28;20049;-65
2022/01/04 03:04:25;;;;;;;16.90;11.65;;;23.70;90.10;;;;;;4171841;28;20089;-66
2022/01/04 03:06:30;;;;;;;17.25;10.52;;;23.80;90.00;;;;;;4178952;28;20095;-64
2022/01/04 03:08:35;;;;;;;20.00;11.60;;;24.00;89.40;;;;;;4164939;28;20075;-66
2022/01/04 03:10:40;;;;;;;19.45;11.00;;;24.00;89.00;;;;;;4164088;28;20048;-65
2022/01/04 03:12:47;;;;;;;17.05;12.30;;;24.10;89.00;;;;;;4177298;28;20047;-65
2022/01/04 03:14:52;;;;;;;16.20;10.95;;;24.10;88.90;;;;;;4164748;28;20057;-64
2022/01/04 03:17:03;;;;;;;16.38;10.82;;;24.10;88.30;;;;;;4181430;28;20499;-64
2022/01/04 03:19:09;;;;;;;13.90;10.65;;;24.10;88.90;;;;;;4181355;28;20045;-64
2022/01/04 03:21:14;;;;;;;12.82;9.55;;;24.20;88.90;;;;;;4164878;28;20049;-64
2022/01/04 03:23:19;;;;;;;13.05;8.93;;;24.20;88.40;;;;;;4165785;28;20103;-64
2022/01/04 03:25:23;;;;;;;14.10;8.70;;;24.20;88.20;;;;;;4168777;28;20492;-64
2022/01/04 03:27:29;;;;;;;17.60;10.32;;;24.30;87.90;;;;;;4180115;28;20384;-64
2022/01/04 03:29:33;;;;;;;17.40;11.07;;;24.40;87.00;;;;;;4180719;28;20128;-64
2022/01/04 03:31:39;;;;;;;17.23;11.00;;;24.60;87.10;;;;;;4180826;28;20135;-64
2022/01/04 03:33:43;;;;;;;14.57;10.13;;;24.60;86.60;;;;;;4180009;28;20064;-65
2022/01/04 03:35:48;;;;;;;15.70;10.05;;;24.70;86.20;;;;;;4180303;28;20478;-65
2022/01/04 03:37:53;;;;;;;14.80;9.48;;;24.60;86.30;;;;;;4177847;28;20077;-64
2022/01/04 03:39:57;;;;;;;12.27;8.85;;;24.70;86.00;;;;;;4171199;28;20389;-64
2022/01/04 03:42:01;;;;;;;16.13;9.35;;;24.90;85.80;;;;;;4171723;28;20569;-64
2022/01/04 03:44:11;;;;;;;13.60;9.05;;;25.00;85.50;;;;;;4172822;28;20115;-64
2022/01/04 03:46:15;;;;;;;11.85;9.05;;;24.90;85.40;;;;;;4169651;28;20041;-65
2022/01/04 03:48:20;;;;;;;17.83;9.98;;;24.90;85.50;;;;;;4171404;28;20034;-64
2022/01/04 03:50:24;;;;;;;18.65;11.52;;;25.00;85.70;;;;;;4171410;28;20049;-64
2022/01/04 03:52:29;;;;;;;16.67;11.90;;;25.10;85.30;;;;;;4169943;28;20033;-64
2022/01/04 03:54:34;;;;;;;16.38;9.65;;;25.10;85.70;;;;;;4170785;28;20463;-64
2022/01/04 03:56:39;;;;;;;13.35;9.23;;;25.30;85.10;;;;;;4175402;28;20060;-65
2022/01/04 03:58:43;;;;;;;15.45;9.77;;;25.30;85.00;;;;;;4172194;28;20048;-65
2022/01/04 04:00:48;;;;;;;20.17;10.18;;;25.20;84.80;;;;;;4180187;28;20147;-65
2022/01/04 04:02:53;;;;;;;15.15;10.02;;;25.30;84.50;;;;;;4179326;28;20406;-65
2022/01/04 04:04:57;;;;;;;15.38;10.35;;;25.30;84.50;;;;;;4179563;28;20055;-65
2022/01/04 04:07:02;;;;;;;16.15;10.20;;;25.20;84.50;;;;;;4180295;28;20061;-65
2022/01/04 04:09:07;;;;;;;15.85;9.80;;;25.30;84.60;;;;;;4180332;28;20076;-65
2022/01/04 04:11:12;;;;;;;11.40;9.18;;;25.20;84.00;;;;;;4180101;28;20049;-64
2022/01/04 04:13:16;;;;;;;15.25;9.15;;;25.20;83.80;;;;;;4180281;28;20049;-64
2022/01/04 04:15:21;;;;;;;23.48;9.00;;;25.20;84.00;;;;;;4179077;28;20466;-64
2022/01/04 04:17:25;;;;;;;15.63;9.05;;;25.20;83.80;;;;;;4180161;28;20044;-64
2022/01/04 04:19:30;;;;;;;14.40;9.30;;;25.30;83.80;;;;;;4175046;28;20041;-64
2022/01/04 04:21:35;;;;;;;15.93;8.90;;;25.40;84.50;;;;;;4162371;28;20111;-64
2022/01/04 04:23:40;;;;;;;14.40;9.57;;;25.40;84.20;;;;;;4163384;28;20061;-64
2022/01/04 04:25:44;;;;;;;15.20;9.48;;;25.50;83.50;;;;;;4168775;28;20482;-64
2022/01/04 04:27:49;;;;;;;14.20;9.80;;;25.50;83.20;;;;;;4173313;28;20041;-65
2022/01/04 04:29:59;;;;;;;13.70;10.13;;;25.40;82.60;;;;;;4173733;28;20128;-64
2022/01/04 04:32:07;;;;;;;17.00;10.52;;;25.40;83.30;;;;;;4176664;28;20519;-63
2022/01/04 04:34:11;;;;;;;14.38;10.57;;;25.40;82.70;;;;;;4171003;28;20124;-65
2022/01/04 04:36:17;;;;;;;15.77;10.05;;;25.40;82.70;;;;;;4168728;28;20072;-65
2022/01/04 04:38:21;;;;;;;12.00;9.32;;;25.40;82.90;;;;;;4175756;28;20037;-67
2022/01/04 04:40:26;;;;;;;13.75;9.25;;;25.40;82.90;;;;;;4177585;28;20064;-66
2022/01/04 04:42:31;;;;;;;15.05;8.63;;;25.50;82.00;;;;;;4175358;28;20041;-65
2022/01/04 04:44:35;;;;;;;11.55;8.77;;;25.60;81.80;;;;;;4176428;28;20056;-66
2022/01/04 04:46:39;;;;;;;16.55;10.63;;;25.70;82.40;;;;;;4174636;28;20049;-66
2022/01/04 04:48:44;;;;;;;14.15;10.95;;;25.70;82.50;;;;;;4174757;28;20033;-65
2022/01/04 04:50:49;;;;;;;16.17;11.15;;;25.80;82.10;;;;;;4175616;28;20145;-66
2022/01/04 04:52:53;;;;;;;14.93;10.73;;;25.90;82.00;;;;;;4175088;28;20052;-65
2022/01/04 04:54:58;;;;;;;16.75;10.25;;;26.00;81.60;;;;;;4169510;28;20457;-67
2022/01/04 04:57:02;;;;;;;14.52;9.90;;;26.10;82.20;;;;;;4172296;28;20427;-65
2022/01/04 04:59:11;;;;;;;13.52;9.23;;;26.10;81.90;;;;;;4170508;28;20049;-65
2022/01/04 05:01:16;;;;;;;12.95;8.77;;;26.00;80.90;;;;;;4169834;28;20216;-65
2022/01/04 05:03:21;;;;;;;16.50;9.57;;;26.00;81.30;;;;;;4170240;28;20084;-66
2022/01/04 05:05:27;;;;;;;17.35;10.20;;;26.00;81.30;;;;;;4175200;28;20148;-66
2022/01/04 05:07:31;;;;;;;15.65;10.05;;;26.10;80.90;;;;;;4174361;28;20072;-66
2022/01/04 05:09:41;;;;;;;11.77;9.30;;;26.10;81.10;;;;;;4170318;28;20037;-66
2022/01/04 05:11:45;;;;;;;17.15;10.77;;;26.20;80.90;;;;;;4170599;28;20046;-66
2022/01/04 05:13:50;;;;;;;17.73;11.43;;;26.20;80.90;;;;;;4170269;28;20548;-66
2022/01/04 05:15:55;;;;;;;18.13;11.88;;;26.20;80.70;;;;;;4170916;28;20053;-65
2022/01/04 05:17:59;;;;;;;16.88;12.10;;;26.20;80.90;;;;;;4174353;28;20037;-66
2022/01/04 05:20:04;;;;;;;21.20;13.07;;;26.30;81.10;;;;;;4171154;28;20045;-67
2022/01/04 05:22:09;;;;;;;18.23;13.60;;;26.40;81.20;;;;;;4170346;28;20080;-67
2022/01/04 05:24:13;;;;;;;20.08;13.07;;;26.50;80.70;;;;;;4169907;28;20041;-66
2022/01/04 05:26:17;;;;;;;19.15;12.55;;;26.50;80.10;;;;;;4175280;28;20379;-65
2022/01/04 05:28:22;;;;;;;16.13;11.60;;;26.50;79.40;;;;;;4170046;28;20052;-65
2022/01/04 05:30:26;;;;;;;18.33;12.38;;;26.50;79.80;;;;;;4169340;28;20507;-68
2022/01/04 05:32:31;;;;;;;15.68;12.00;;;26.50;80.10;;;;;;4175090;28;20531;-65
2022/01/04 05:34:35;;;;;;;18.83;11.75;;;26.60;80.00;;;;;;4175086;28;20053;-64
2022/01/04 05:36:40;;;;;;;18.58;11.63;;;26.60;79.60;;;;;;4169943;28;20045;-65
2022/01/04 05:38:44;;;;;;;16.63;11.15;;;26.60;79.20;;;;;;4169846;28;20045;-64
2022/01/04 05:40:49;;;;;;;14.02;10.75;;;26.60;79.70;;;;;;4169537;28;20474;-64
2022/01/04 05:42:53;;;;;;;13.30;9.80;;;26.60;78.40;;;;;;4169916;28;20124;-64
2022/01/04 05:44:58;;;;;;;16.35;9.70;;;26.50;79.10;;;;;;4169723;28;20160;-65
2022/01/04 05:47:02;;;;;;;14.80;8.98;;;26.50;79.20;;;;;;4169331;28;20404;-65
2022/01/04 05:49:07;;;;;;;12.93;8.20;;;26.50;79.30;;;;;;4172345;28;20392;-65
2022/01/04 05:51:11;;;;;;;14.90;8.63;;;26.60;79.60;;;;;;4170358;28;20543;-66
2022/01/04 05:53:16;;;;;;;18.58;9.20;;;26.50;79.50;;;;;;4173538;28;20106;-66
2022/01/04 05:55:21;;;;;;;13.32;8.98;;;26.60;79.70;;;;;;4165666;28;20528;-67
2022/01/04 05:57:25;;;;;;;17.77;9.48;;;26.70;78.60;;;;;;4172791;28;20502;-66
2022/01/04 05:59:30;;;;;;;14.48;9.10;;;26.60;78.90;;;;;;4174844;28;20049;-64
2022/01/04 06:01:35;;;;;;;12.38;8.85;;;26.70;78.80;;;;;;4165089;28;20507;-65
2022/01/04 06:03:40;;;;;;;20.50;11.13;;;26.70;78.50;;;;;;4164587;28;20448;-66
2022/01/04 06:05:44;;;;;;;17.45;11.00;;;26.70;78.40;;;;;;4162351;28;20045;-65
2022/01/04 06:07:49;;;;;;;15.38;10.68;;;26.70;78.60;;;;;;4163139;28;20045;-65
2022/01/04 06:09:54;;;;;;;11.50;8.80;;;26.70;78.90;;;;;;4162573;28;20500;-67
2022/01/04 06:12:02;;;;;;;15.50;8.23;;;26.80;78.90;;;;;;4170672;28;20037;-66
2022/01/04 06:16:24;;;;;;;15.40;9.02;;;27.00;78.30;;;;;;4171515;28;20507;-65
2022/01/04 06:18:48;;;;;;;11.70;8.48;;;27.00;78.40;;;;;;4167149;28;20076;-64
2022/01/04 06:20:57;;;;;;;16.63;9.75;;;27.00;77.70;;;;;;4170790;28;20136;-66
2022/01/04 06:23:02;;;;;;;15.02;10.85;;;27.00;77.70;;;;;;4169746;28;20507;-65
2022/01/04 06:25:15;;;;;;;15.15;10.30;;;27.00;78.30;;;;;;4172800;28;20045;-65
2022/01/04 06:27:19;;;;;;;14.55;10.00;;;27.00;78.30;;;;;;4178005;28;20048;-64
2022/01/04 06:29:24;;;;;;;12.63;9.40;;;27.00;77.70;;;;;;4169530;28;20045;-65
2022/01/04 06:31:29;;;;;;;13.50;10.38;;;27.00;78.00;;;;;;4171729;28;20072;-65
2022/01/04 06:33:34;;;;;;;15.00;9.90;;;27.10;78.10;;;;;;4169083;28;20458;-64
2022/01/04 06:35:38;;;;;;;13.20;9.23;;;27.30;77.40;;;;;;4169505;28;20450;-65
2022/01/04 06:37:44;;;;;;;15.05;9.48;;;27.40;76.70;;;;;;4169846;28;20569;-65
2022/01/04 06:39:49;;;;;;;20.42;9.23;;;27.30;76.30;;;;;;4171500;28;20053;-65
2022/01/04 06:41:54;;;;;;;13.65;8.85;;;27.30;77.60;;;;;;4168701;28;20049;-65
2022/01/04 06:43:58;;;;;;;13.10;8.52;;;27.40;76.80;;;;;;4171631;28;20492;-65
2022/01/04 06:46:03;;;;;;;14.25;9.65;;;27.50;76.30;;;;;;4174609;28;20056;-65
2022/01/04 06:48:08;;;;;;;15.15;10.75;;;27.50;76.70;;;;;;4163256;28;20419;-65
2022/01/04 06:50:30;;;;;;;15.00;10.55;;;27.50;76.40;;;;;;4175047;28;20045;-67
2022/01/04 06:52:35;;;;;;;15.70;10.95;;;27.50;76.60;;;;;;4167129;28;20457;-66
2022/01/04 06:54:39;;;;;;;15.32;10.07;;;27.50;76.70;;;;;;4170375;28;20077;-65
2022/01/04 06:56:44;;;;;;;15.70;10.60;;;27.50;76.60;;;;;;4173778;28;20514;-65
2022/01/04 06:59:09;;;;;;;16.80;10.35;;;27.50;76.20;;;;;;4175425;28;20067;-65
2022/01/04 07:01:16;;;;;;;12.40;8.38;;;27.50;76.50;;;;;;4177265;28;20507;-65
2022/01/04 07:03:23;;;;;;;14.38;8.43;;;27.50;76.50;;;;;;4177979;28;20044;-66
2022/01/04 07:05:28;;;;;;;13.07;8.63;;;27.50;76.80;;;;;;4174882;28;20477;-65
2022/01/04 07:07:47;;;;;;;13.90;8.70;;;27.40;76.30;;;;;;4173479;28;20785;-64
2022/01/04 07:09:53;;;;;;;13.32;9.45;;;27.40;76.60;;;;;;4178157;28;20503;-65
2022/01/04 07:11:58;;;;;;;14.25;7.82;;;27.30;76.20;;;;;;4180302;28;20078;-64
2022/01/04 07:14:03;;;;;;;12.10;8.25;;;27.30;76.80;;;;;;4172393;28;20041;-65
2022/01/04 07:16:08;;;;;;;11.75;8.40;;;27.30;76.10;;;;;;4172424;28;20046;-65
2022/01/04 07:18:12;;;;;;;11.38;8.25;;;27.30;75.80;;;;;;4171634;28;20049;-64
2022/01/04 07:20:17;;;;;;;12.98;7.95;;;27.30;75.90;;;;;;4186446;28;20048;-65
2022/01/04 07:22:21;;;;;;;10.45;7.63;;;27.30;76.90;;;;;;4172767;28;20053;-65
2022/01/04 07:24:26;;;;;;;11.60;7.40;;;27.30;76.90;;;;;;4181049;28;20475;-67
2022/01/04 07:26:33;;;;;;;13.90;8.63;;;27.20;77.20;;;;;;4180313;28;20048;-65
2022/01/04 07:28:39;;;;;;;12.90;8.30;;;27.30;77.20;;;;;;4178142;28;20415;-65
2022/01/04 07:30:46;;;;;;;11.77;8.40;;;27.40;76.80;;;;;;4180481;28;20033;-66
2022/01/04 07:32:51;;;;;;;14.20;9.38;;;27.40;76.60;;;;;;4180991;28;20490;-65
2022/01/04 07:34:56;;;;;;;18.38;11.73;;;27.50;76.50;;;;;;4181137;28;20072;-66
2022/01/04 07:37:02;;;;;;;14.65;11.10;;;27.40;75.90;;;;;;4179137;28;20036;-65
2022/01/04 07:39:07;;;;;;;13.00;9.52;;;27.40;76.70;;;;;;4179021;28;20136;-65
2022/01/04 07:41:11;;;;;;;14.95;9.57;;;27.30;76.10;;;;;;4177956;28;20048;-65
2022/01/04 07:43:16;;;;;;;15.30;10.95;;;27.40;77.00;;;;;;4174878;28;20037;-65
2022/01/04 07:45:21;;;;;;;15.52;10.30;;;27.50;76.80;;;;;;4173246;28;20044;-64
2022/01/04 07:47:27;;;;;;;18.95;8.57;;;27.60;76.00;;;;;;4180063;28;20446;-68
2022/01/04 07:49:31;;;;;;;11.82;7.97;;;27.60;75.10;;;;;;4177800;28;20428;-64
2022/01/04 07:51:37;;;;;;;14.35;7.85;;;27.60;75.80;;;;;;4178097;28;20143;-68
2022/01/04 07:53:41;;;;;;;10.65;7.53;;;27.60;75.80;;;;;;4180229;28;20538;-65
2022/01/04 07:55:45;;;;;;;11.48;8.20;;;27.60;75.00;;;;;;4179466;28;20055;-65
2022/01/04 07:57:50;;;;;;;18.85;8.32;;;27.60;75.60;;;;;;4177610;28;20045;-66
2022/01/04 07:59:54;;;;;;;13.63;7.55;;;27.60;75.40;;;;;;4179194;28;20055;-65
2022/01/04 08:01:59;;;;;;;10.52;8.20;;;27.70;75.70;;;;;;4177250;28;20565;-64
2022/01/04 08:04:04;;;;;;;13.98;8.90;;;27.70;75.90;;;;;;4180308;28;20091;-64
2022/01/04 08:06:09;;;;;;;12.43;8.32;;;27.70;75.40;;;;;;4180163;28;20052;-66
2022/01/04 08:08:14;;;;;;;13.35;8.02;;;27.80;75.10;;;;;;4180050;28;20052;-63
2022/01/04 08:10:19;;;;;;;15.75;8.00;;;27.70;75.00;;;;;;4176296;28;20029;-65
2022/01/04 08:12:23;;;;;;;16.90;8.52;;;27.70;75.10;;;;;;4180066;28;20048;-65
2022/01/04 08:14:28;;;;;;;14.85;8.07;;;27.80;75.20;;;;;;4180050;28;20033;-64
2022/01/04 08:16:32;;;;;;;10.60;6.90;;;27.70;74.70;;;;;;4180141;28;20049;-64
2022/01/04 08:18:37;;;;;;;16.42;6.85;;;27.70;74.60;;;;;;4171889;28;20049;-64
2022/01/04 08:21:04;;;;;;;16.98;7.43;;;27.80;74.20;;;;;;4171700;28;20067;-65
2022/01/04 08:23:08;;;;;;;10.68;7.38;;;27.70;74.30;;;;;;4171643;28;20389;-64
2022/01/04 08:25:12;;;;;;;13.20;8.25;;;27.70;74.30;;;;;;4171380;28;20662;-67
2022/01/04 08:27:18;;;;;;;9.90;8.15;;;27.60;74.20;;;;;;4174079;28;20072;-65
2022/01/04 08:29:24;;;;;;;16.02;8.25;;;27.70;74.50;;;;;;4171762;28;20050;-66
2022/01/04 08:31:29;;;;;;;12.80;9.25;;;27.70;74.60;;;;;;4170946;28;20065;-65
2022/01/04 08:33:33;;;;;;;19.70;8.85;;;27.70;74.70;;;;;;4171161;28;20057;-65
2022/01/04 08:35:38;;;;;;;13.68;8.15;;;27.60;74.60;;;;;;4171300;28;20476;-65
2022/01/04 08:37:43;;;;;;;12.10;7.82;;;27.50;74.60;;;;;;4171720;28;20641;-65
2022/01/04 08:39:47;;;;;;;13.63;7.82;;;27.40;74.50;;;;;;4171181;28;20033;-65
2022/01/04 08:41:54;;;;;;;15.18;7.70;;;27.30;75.20;;;;;;4170012;28;20053;-65
2022/01/04 08:43:59;;;;;;;14.32;7.93;;;27.30;75.80;;;;;;4171455;28;20049;-66
2022/01/04 08:46:03;;;;;;;13.57;8.00;;;27.30;75.70;;;;;;4169891;28;20051;-66
2022/01/04 08:48:08;;;;;;;10.43;7.85;;;27.40;75.20;;;;;;4171257;28;20033;-65
2022/01/04 08:50:14;;;;;;;13.85;8.40;;;27.50;75.70;;;;;;4170890;28;20041;-65
2022/01/04 08:52:19;;;;;;;11.10;7.55;;;27.60;75.20;;;;;;4169212;28;20045;-65
2022/01/04 08:54:23;;;;;;;11.05;7.28;;;27.70;74.40;;;;;;4175412;28;20643;-65
2022/01/04 08:56:28;;;;;;;10.50;6.68;;;27.70;74.10;;;;;;4174273;28;20040;-65
2022/01/04 08:58:32;;;;;;;13.32;7.18;;;27.70;74.10;;;;;;4165900;28;20072;-65
2022/01/04 09:00:37;;;;;;;11.88;7.60;;;27.80;74.00;;;;;;4165531;28;20057;-65
2022/01/04 09:02:43;;;;;;;12.35;7.03;;;27.80;73.50;;;;;;4174162;28;20454;-65
2022/01/04 09:04:48;;;;;;;10.00;6.57;;;27.70;73.80;;;;;;4170350;28;20059;-65
2022/01/04 09:06:52;;;;;;;10.45;6.75;;;27.60;73.60;;;;;;4170990;28;20089;-65
2022/01/04 09:08:57;;;;;;;10.50;6.60;;;27.60;73.60;;;;;;4170700;28;20045;-65
2022/01/04 09:11:03;;;;;;;10.10;5.97;;;27.60;73.20;;;;;;4172844;28;20091;-66
2022/01/04 09:13:16;;;;;;;11.07;6.05;;;27.60;73.50;;;;;;4171398;28;20040;-65
2022/01/04 09:20:01;;;;;;;22.10;7.43;;;27.70;72.40;;;;;;4172557;28;20502;-65
2022/01/04 09:22:06;;;;;;;11.52;6.57;;;27.60;73.10;;;;;;4177468;28;20597;-64
2022/01/04 09:24:11;;;;;;;12.02;6.82;;;27.60;73.10;;;;;;4168984;28;20049;-65
2022/01/04 09:26:16;;;;;;;10.70;6.40;;;27.60;73.60;;;;;;4166097;28;20173;-64
2022/01/04 09:28:21;;;;;;;10.23;6.22;;;27.60;73.60;;;;;;4169140;28;20091;-65
2022/01/04 09:30:27;;;;;;;11.70;6.50;;;27.60;73.80;;;;;;4167949;28;20484;-64
2022/01/04 09:32:33;;;;;;;14.27;7.25;;;27.60;73.70;;;;;;4168122;28;20500;-65
2022/01/04 09:34:37;;;;;;;18.85;7.38;;;27.60;72.90;;;;;;4167490;28;20054;-65
2022/01/04 09:36:43;;;;;;;13.88;6.53;;;27.50;73.00;;;;;;4168143;28;20076;-65
2022/01/04 09:38:47;;;;;;;18.52;7.28;;;27.40;72.50;;;;;;4167996;28;20099;-65
2022/01/04 09:40:53;;;;;;;12.10;7.10;;;27.40;72.60;;;;;;4167611;28;20102;-64
2022/01/04 09:42:57;;;;;;;10.85;6.40;;;27.40;73.30;;;;;;4168796;28;20056;-64
2022/01/04 09:45:04;;;;;;;9.93;6.30;;;27.40;72.90;;;;;;4167234;28;20043;-64
2022/01/04 09:47:08;;;;;;;15.68;6.63;;;27.30;73.40;;;;;;4167487;28;20132;-65
2022/01/04 09:49:14;;;;;;;13.30;6.63;;;27.30;74.10;;;;;;4167804;28;20092;-65
2022/01/04 09:51:18;;;;;;;13.52;7.25;;;27.20;74.40;;;;;;4164721;28;20045;-64
2022/01/04 09:53:22;;;;;;;20.77;7.70;;;27.20;74.90;;;;;;4164924;28;20372;-64
2022/01/04 09:55:27;;;;;;;13.55;7.88;;;27.20;75.10;;;;;;4163052;28;20113;-64
2022/01/04 09:57:31;;;;;;;14.55;7.43;;;27.10;75.00;;;;;;4173141;28;20407;-65
2022/01/04 09:59:35;;;;;;;20.02;7.15;;;27.20;75.30;;;;;;4175336;28;20060;-64
2022/01/04 10:01:41;;;;;;;14.20;7.85;;;27.10;75.50;;;;;;4170184;28;20487;-65
2022/01/04 10:03:54;;;;;;;15.98;8.48;;;27.10;75.80;;;;;;4173475;28;20389;-64
2022/01/04 10:06:15;;;;;;;12.65;7.78;;;27.10;75.60;;;;;;4172965;28;20454;-64
2022/01/04 10:08:19;;;;;;;14.90;8.27;;;27.00;76.00;;;;;;4172651;28;20528;-64
2022/01/04 10:10:24;;;;;;;17.00;10.25;;;27.00;76.00;;;;;;4173330;28;20627;-64
2022/01/04 10:12:33;;;;;;;26.17;17.35;;;27.00;76.10;;;;;;4174393;28;20496;-64
2022/01/04 10:14:41;;;;;;;29.77;20.48;;;27.00;76.30;;;;;;4170687;28;20327;-65
2022/01/04 10:16:57;;;;;;;23.25;13.57;;;27.00;76.40;;;;;;4174594;28;20099;-65
2022/01/04 10:19:03;;;;;;;22.17;13.55;;;26.90;75.90;;;;;;4173062;28;20055;-66
2022/01/04 10:21:12;;;;;;;22.90;13.00;;;26.90;76.20;;;;;;4173833;28;20057;-64
2022/01/04 10:23:20;;;;;;;21.55;12.07;;;26.90;76.10;;;;;;4173381;28;20045;-64
2022/01/04 10:25:25;;;;;;;18.92;11.15;;;26.90;76.10;;;;;;4173997;28;20049;-64
2022/01/04 10:27:34;;;;;;;20.77;13.30;;;26.90;76.10;;;;;;4174163;28;20060;-64
2022/01/04 10:29:39;;;;;;;21.05;12.77;;;26.90;75.80;;;;;;4173382;28;20565;-64
2022/01/04 10:31:43;;;;;;;22.13;12.13;;;26.90;76.10;;;;;;4173168;28;20541;-64
2022/01/04 10:33:57;;;;;;;25.95;12.85;;;26.90;76.40;;;;;;4173497;28;20523;-64
2022/01/04 10:36:11;;;;;;;26.40;13.73;;;26.90;76.60;;;;;;4172825;28;20541;-64
2022/01/04 10:38:30;;;;;;;24.30;14.52;;;26.90;76.60;;;;;;4172813;28;20458;-64
2022/01/04 10:40:35;;;;;;;28.58;15.05;;;26.90;77.00;;;;;;4174178;28;20043;-65
2022/01/04 10:42:41;;;;;;;26.88;16.60;;;26.90;77.20;;;;;;4173727;28;20048;-65
2022/01/04 10:44:48;;;;;;;37.03;18.80;;;26.90;77.50;;;;;;4172854;28;20040;-65
2022/01/04 10:46:56;;;;;;;43.15;22.67;;;26.80;76.80;;;;;;4176953;28;20506;-62
2022/01/04 10:49:01;;;;;;;41.75;23.25;;;26.70;76.70;;;;;;4175190;28;20048;-64
2022/01/04 10:51:14;;;;;;;46.28;23.48;;;26.80;77.00;;;;;;4167032;28;20132;-64